Time;durP1;ratioP1;P1;durP2;ratioP2;P2;SDS_P1;SDS_P2;PMS_P1;PMS_P2;Temp;Humidity;BMP_temperature;BMP_pressure;BME280_temperature;BME280_humidity;BME280_pressure;Samples;Min_cycle;Max_cycle;Signal;HPM_P1;HPM_P2
2022/10/16 00:02:19;;;;;;;26.40;5.18;;;;;;;;;;6024143;29;20052;-87
2022/10/16 00:05:22;;;;;;;51.40;5.65;;;;;;;;;;6036227;29;20076;-87
2022/10/16 00:08:24;;;;;;;14.50;4.93;;;;;;;;;;6041970;29;20048;-87
2022/10/16 00:11:30;;;;;;;19.48;4.13;;;;;;;;;;6043037;29;20572;-89
2022/10/16 00:14:32;;;;;;;8.75;3.70;;;;;;;;;;6045939;29;20080;-86
2022/10/16 00:17:33;;;;;;;7.32;3.10;;;;;;;;;;6045874;29;20052;-85
2022/10/16 00:20:36;;;;;;;13.93;4.45;;;;;;;;;;6062702;29;20055;-86
2022/10/16 00:23:39;;;;;;;5.05;3.33;;;;;;;;;;6064309;29;20060;-85
2022/10/16 00:26:41;;;;;;;7.70;4.37;;;;;;;;;;6040708;29;20052;-86
2022/10/16 00:29:43;;;;;;;10.77;4.00;;;;;;;;;;6033627;29;20044;-86
2022/10/16 00:32:44;;;;;;;17.30;3.78;;;;;;;;;;6055712;29;20132;-86
2022/10/16 00:35:46;;;;;;;12.65;3.72;;;;;;;;;;6049351;29;20044;-85
2022/10/16 00:38:52;;;;;;;9.27;4.18;;;;;;;;;;6032838;29;20056;-86
2022/10/16 00:41:54;;;;;;;10.02;4.00;;;;;;;;;;6047895;29;21043;-86
2022/10/16 00:44:57;;;;;;;5.43;3.58;;;;;;;;;;6044515;29;20559;-86
2022/10/16 00:47:59;;;;;;;4.65;3.65;;;;;;;;;;6031332;29;20048;-85
2022/10/16 00:51:01;;;;;;;6.53;3.85;;;;;;;;;;6038829;29;20128;-85
2022/10/16 00:54:08;;;;;;;4.43;3.40;;;;;;;;;;6057701;29;20045;-86
2022/10/16 00:57:10;;;;;;;4.55;3.42;;;;;;;;;;6046257;29;20065;-85
2022/10/16 01:00:22;;;;;;;5.30;3.15;;;;;;;;;;6048405;29;20049;-85
2022/10/16 01:03:28;;;;;;;5.00;3.20;;;;;;;;;;6027658;29;20044;-86
2022/10/16 01:06:46;;;;;;;5.30;3.45;;;;;;;;;;6048875;29;20053;-86
2022/10/16 01:10:10;;;;;;;4.60;3.60;;;;;;;;;;6046120;29;20051;-86
2022/10/16 01:13:24;;;;;;;4.63;3.55;;;;;;;;;;6059899;29;20061;-86
2022/10/16 01:16:43;;;;;;;5.00;3.53;;;;;;;;;;6052657;29;20064;-85
2022/10/16 01:19:51;;;;;;;5.40;3.70;;;;;;;;;;6051528;29;20074;-85
2022/10/16 01:23:21;;;;;;;6.55;3.75;;;;;;;;;;6066941;29;20085;-86
2022/10/16 01:26:44;;;;;;;7.35;3.65;;;;;;;;;;6054329;29;20068;-86
2022/10/16 01:29:54;;;;;;;4.60;3.65;;;;;;;;;;6043798;29;20052;-86
2022/10/16 01:33:13;;;;;;;7.55;3.85;;;;;;;;;;6042752;29;20045;-86
2022/10/16 01:36:20;;;;;;;7.45;4.18;;;;;;;;;;6047660;29;20052;-87
2022/10/16 01:39:29;;;;;;;7.38;3.33;;;;;;;;;;6034395;29;20056;-85
2022/10/16 01:42:40;;;;;;;6.38;3.50;;;;;;;;;;6042801;29;20062;-86
2022/10/16 01:45:44;;;;;;;6.90;3.45;;;;;;;;;;6059778;29;20044;-87
2022/10/16 01:48:48;;;;;;;5.10;3.33;;;;;;;;;;6036608;29;20048;-86
2022/10/16 01:51:55;;;;;;;3.65;2.83;;;;;;;;;;6044018;29;20136;-86
2022/10/16 01:55:00;;;;;;;5.30;3.17;;;;;;;;;;6014295;29;20048;-86
2022/10/16 01:58:04;;;;;;;4.78;3.08;;;;;;;;;;6026236;29;20052;-85
2022/10/16 02:01:08;;;;;;;3.95;2.95;;;;;;;;;;6045131;29;20100;-86
2022/10/16 02:04:21;;;;;;;5.60;3.13;;;;;;;;;;6055139;29;20053;-86
2022/10/16 02:07:25;;;;;;;3.95;2.90;;;;;;;;;;6058171;29;20186;-85
2022/10/16 02:10:30;;;;;;;4.53;3.05;;;;;;;;;;6029219;29;20045;-86
2022/10/16 02:13:38;;;;;;;14.82;4.15;;;;;;;;;;6042263;29;20058;-84
2022/10/16 02:16:44;;;;;;;4.97;2.90;;;;;;;;;;6043225;29;20045;-86
2022/10/16 02:19:48;;;;;;;5.70;3.22;;;;;;;;;;6034446;29;20049;-86
2022/10/16 02:22:51;;;;;;;4.57;2.95;;;;;;;;;;6038337;29;20633;-85
2022/10/16 02:25:55;;;;;;;3.05;2.75;;;;;;;;;;6058010;29;20045;-86
2022/10/16 02:29:04;;;;;;;6.65;3.35;;;;;;;;;;6055872;29;20048;-86
2022/10/16 02:32:10;;;;;;;3.40;3.08;;;;;;;;;;6042839;29;20511;-85
2022/10/16 02:35:13;;;;;;;3.92;3.17;;;;;;;;;;6055612;29;20075;-85
2022/10/16 02:38:16;;;;;;;5.63;2.90;;;;;;;;;;6043093;29;20049;-85
2022/10/16 02:41:18;;;;;;;5.55;2.88;;;;;;;;;;6044433;29;20053;-85
2022/10/16 02:44:20;;;;;;;4.40;2.90;;;;;;;;;;6042847;29;20132;-86
2022/10/16 02:47:22;;;;;;;4.75;2.83;;;;;;;;;;6024226;29;20519;-85
2022/10/16 02:50:24;;;;;;;5.55;3.03;;;;;;;;;;6059238;29;20060;-85
2022/10/16 02:53:26;;;;;;;4.82;2.80;;;;;;;;;;6043992;29;20055;-86
2022/10/16 02:56:29;;;;;;;3.10;2.50;;;;;;;;;;6044441;29;20128;-86
2022/10/16 02:59:31;;;;;;;6.82;2.78;;;;;;;;;;6060532;29;20045;-86
2022/10/16 03:02:32;;;;;;;3.45;2.15;;;;;;;;;;6027991;29;20068;-85
2022/10/16 03:05:34;;;;;;;4.35;3.28;;;;;;;;;;6042172;29;20056;-86
2022/10/16 03:08:35;;;;;;;5.90;2.90;;;;;;;;;;6044175;29;20049;-86
2022/10/16 03:11:37;;;;;;;5.22;3.03;;;;;;;;;;6040511;29;20060;-86
2022/10/16 03:14:40;;;;;;;7.25;2.88;;;;;;;;;;6043668;29;20181;-86
2022/10/16 03:17:41;;;;;;;2.70;2.50;;;;;;;;;;6053785;29;20041;-85
2022/10/16 03:20:43;;;;;;;4.90;2.75;;;;;;;;;;6056476;29;20545;-85
2022/10/16 03:23:45;;;;;;;4.15;2.70;;;;;;;;;;6055765;29;20527;-85
2022/10/16 03:26:47;;;;;;;3.90;2.58;;;;;;;;;;6042694;29;20492;-85
2022/10/16 03:29:48;;;;;;;9.80;3.30;;;;;;;;;;6044574;29;20043;-85
2022/10/16 03:32:53;;;;;;;6.22;3.63;;;;;;;;;;6045147;29;20134;-85
2022/10/16 03:35:56;;;;;;;5.25;2.67;;;;;;;;;;6027749;29;20574;-86
2022/10/16 03:38:57;;;;;;;7.20;2.67;;;;;;;;;;6026836;29;21907;-86
2022/10/16 03:41:59;;;;;;;6.15;3.20;;;;;;;;;;6038559;29;20045;-86
2022/10/16 03:45:01;;;;;;;7.45;2.65;;;;;;;;;;6029214;29;20052;-85
2022/10/16 03:48:03;;;;;;;5.73;2.70;;;;;;;;;;6035463;29;20045;-86
2022/10/16 03:51:05;;;;;;;5.00;2.97;;;;;;;;;;6032905;29;20048;-87
2022/10/16 03:54:07;;;;;;;7.20;3.70;;;;;;;;;;6050975;29;20048;-86
2022/10/16 03:57:09;;;;;;;4.03;2.70;;;;;;;;;;6063272;29;20420;-85
2022/10/16 04:00:11;;;;;;;3.88;2.55;;;;;;;;;;6049517;29;20056;-85
2022/10/16 04:03:13;;;;;;;4.70;2.87;;;;;;;;;;6049961;29;20056;-86
2022/10/16 04:06:14;;;;;;;4.82;2.40;;;;;;;;;;6041548;29;20548;-86
2022/10/16 04:09:16;;;;;;;3.10;2.80;;;;;;;;;;6058102;29;20199;-86
2022/10/16 04:12:18;;;;;;;5.90;4.07;;;;;;;;;;6057380;29;20216;-86
2022/10/16 04:15:20;;;;;;;11.35;5.65;;;;;;;;;;6065829;29;20052;-86
2022/10/16 04:18:21;;;;;;;4.75;4.00;;;;;;;;;;6045268;29;20268;-86
2022/10/16 04:21:24;;;;;;;10.30;4.68;;;;;;;;;;6053576;29;20089;-86
2022/10/16 04:24:26;;;;;;;9.32;4.80;;;;;;;;;;6060484;29;20504;-86
2022/10/16 04:27:28;;;;;;;3.92;2.80;;;;;;;;;;6046916;29;20168;-86
2022/10/16 04:30:30;;;;;;;;;;;;;;;;;;6049440;29;20041;-85
2022/10/16 04:33:33;;;;;;;5.65;2.72;;;;;;;;;;6033998;29;20007;-86
2022/10/16 04:36:34;;;;;;;5.18;2.75;;;;;;;;;;6049396;29;20063;-85
2022/10/16 04:39:36;;;;;;;5.18;2.70;;;;;;;;;;6031407;29;20527;-86
2022/10/16 04:42:38;;;;;;;2.40;2.20;;;;;;;;;;6059838;29;20075;-85
2022/10/16 04:45:39;;;;;;;3.20;2.10;;;;;;;;;;6048265;29;20060;-85
2022/10/16 04:48:41;;;;;;;4.28;1.85;;;;;;;;;;6060434;29;20091;-86
2022/10/16 04:51:43;;;;;;;4.50;2.20;;;;;;;;;;6051807;29;20053;-85
2022/10/16 04:54:45;;;;;;;4.05;1.85;;;;;;;;;;6052825;29;20052;-85
2022/10/16 04:57:46;;;;;;;2.33;2.13;;;;;;;;;;6049106;29;20055;-86
2022/10/16 05:00:48;;;;;;;2.67;1.52;;;;;;;;;;6051876;29;20516;-85
2022/10/16 05:03:50;;;;;;;1.67;1.23;;;;;;;;;;6028040;29;20048;-85
2022/10/16 05:06:52;;;;;;;2.28;1.40;;;;;;;;;;6029208;29;20054;-85
2022/10/16 05:09:53;;;;;;;3.78;1.30;;;;;;;;;;6063591;29;20181;-85
2022/10/16 05:12:55;;;;;;;2.00;1.30;;;;;;;;;;6028289;29;20041;-85
2022/10/16 05:15:57;;;;;;;3.40;1.30;;;;;;;;;;6061821;29;20049;-85
2022/10/16 05:18:58;;;;;;;1.50;1.15;;;;;;;;;;6047389;29;20055;-84
2022/10/16 05:22:20;;;;;;;4.25;1.25;;;;;;;;;;6047873;29;20091;-84
2022/10/16 05:25:22;;;;;;;2.05;1.35;;;;;;;;;;6057712;29;20674;-83
2022/10/16 05:28:28;;;;;;;3.00;1.40;;;;;;;;;;6048557;29;20049;-84
2022/10/16 05:31:30;;;;;;;2.63;1.30;;;;;;;;;;6063491;29;20052;-84
2022/10/16 05:34:31;;;;;;;2.55;1.20;;;;;;;;;;6046476;29;20067;-84
2022/10/16 05:37:33;;;;;;;2.25;1.00;;;;;;;;;;6058067;29;20505;-84
2022/10/16 05:40:35;;;;;;;1.95;1.00;;;;;;;;;;6038425;29;20071;-85
2022/10/16 05:43:36;;;;;;;0.90;0.90;;;;;;;;;;6044752;29;20044;-84
2022/10/16 05:46:38;;;;;;;1.00;0.90;;;;;;;;;;6040862;29;20056;-84
2022/10/16 05:49:40;;;;;;;2.28;1.10;;;;;;;;;;6040012;29;20060;-83
2022/10/16 05:52:42;;;;;;;1.02;0.77;;;;;;;;;;6045458;29;20064;-84
2022/10/16 05:55:51;;;;;;;13.45;6.05;;;;;;;;;;6038973;29;20055;-84
2022/10/16 05:58:53;;;;;;;2.85;1.42;;;;;;;;;;6059866;29;20570;-84
2022/10/16 06:01:55;;;;;;;1.92;1.23;;;;;;;;;;6030683;29;20044;-84
2022/10/16 06:04:56;;;;;;;2.28;1.20;;;;;;;;;;6026881;29;20869;-85
2022/10/16 06:07:58;;;;;;;1.20;1.10;;;;;;;;;;6045270;29;20507;-84
2022/10/16 06:11:08;;;;;;;2.00;1.20;;;;;;;;;;6058827;29;20096;-84
2022/10/16 06:14:09;;;;;;;2.35;1.20;;;;;;;;;;6032286;29;20041;-84
2022/10/16 06:17:11;;;;;;;2.88;1.42;;;;;;;;;;6038662;29;20047;-84
2022/10/16 06:20:12;;;;;;;1.70;1.15;;;;;;;;;;6029079;29;20052;-84
2022/10/16 06:23:14;;;;;;;3.50;1.70;;;;;;;;;;6061102;29;20064;-84
2022/10/16 06:26:19;;;;;;;5.28;2.30;;;;;;;;;;6046189;29;20551;-84
2022/10/16 06:29:21;;;;;;;2.28;1.73;;;;;;;;;;6056190;29;20085;-84
2022/10/16 06:32:23;;;;;;;4.35;1.30;;;;;;;;;;6029228;29;20044;-84
2022/10/16 06:35:24;;;;;;;2.75;1.20;;;;;;;;;;6048646;29;20912;-84
2022/10/16 06:38:26;;;;;;;1.20;1.10;;;;;;;;;;6056511;29;20049;-84
2022/10/16 06:41:27;;;;;;;4.75;1.85;;;;;;;;;;6040995;29;20059;-84
2022/10/16 06:44:30;;;;;;;5.25;2.60;;;;;;;;;;6028316;29;20044;-84
2022/10/16 06:47:32;;;;;;;4.10;1.80;;;;;;;;;;6040608;29;20409;-84
2022/10/16 06:50:33;;;;;;;1.80;1.50;;;;;;;;;;6042114;29;20053;-83
2022/10/16 06:53:37;;;;;;;2.10;1.35;;;;;;;;;;6058716;29;20028;-83
2022/10/16 06:56:50;;;;;;;3.83;1.40;;;;;;;;;;6058901;29;20063;-83
2022/10/16 06:59:52;;;;;;;1.90;1.70;;;;;;;;;;6047143;29;20060;-85
2022/10/16 07:02:56;;;;;;;2.58;1.83;;;;;;;;;;6034658;29;20411;-84
2022/10/16 07:06:03;;;;;;;1.60;1.50;;;;;;;;;;6041149;29;20052;-84
2022/10/16 07:09:08;;;;;;;2.63;2.10;;;;;;;;;;6063459;29;20063;-84
2022/10/16 07:12:10;;;;;;;2.83;2.10;;;;;;;;;;6041003;29;20488;-84
2022/10/16 07:15:12;;;;;;;2.70;2.13;;;;;;;;;;6047974;29;20044;-83
2022/10/16 07:18:14;;;;;;;5.03;2.77;;;;;;;;;;6062543;29;20082;-84
2022/10/16 07:21:19;;;;;;;6.25;3.80;;;;;;;;;;6046150;29;20049;-84
2022/10/16 07:24:20;;;;;;;4.57;3.00;;;;;;;;;;6040516;29;20180;-84
2022/10/16 07:27:23;;;;;;;7.00;3.83;;;;;;;;;;6041249;29;20056;-84
2022/10/16 07:30:25;;;;;;;12.23;6.55;;;;;;;;;;6057991;29;20135;-84
2022/10/16 07:33:27;;;;;;;16.83;8.25;;;;;;;;;;6044606;29;20068;-84
2022/10/16 07:36:29;;;;;;;14.85;8.35;;;;;;;;;;6059997;29;20067;-84
2022/10/16 07:39:30;;;;;;;18.25;8.18;;;;;;;;;;6028253;29;20505;-84
2022/10/16 07:42:32;;;;;;;9.05;5.60;;;;;;;;;;6041362;29;20071;-83
2022/10/16 07:45:34;;;;;;;13.25;5.28;;;;;;;;;;6043395;29;20442;-84
2022/10/16 07:48:35;;;;;;;8.68;4.82;;;;;;;;;;6044650;29;20061;-85
2022/10/16 07:51:39;;;;;;;4.45;3.60;;;;;;;;;;6044282;29;20496;-85
2022/10/16 07:54:40;;;;;;;;;;;;;;;;;;6041759;29;20052;-85
2022/10/16 07:57:42;;;;;;;14.35;8.73;;;;;;;;;;6041962;29;19977;-85
2022/10/16 08:00:43;;;;;;;6.03;3.55;;;;;;;;;;6041322;29;20131;-85
2022/10/16 08:03:48;;;;;;;10.73;6.55;;;;;;;;;;6042121;29;20037;-84
2022/10/16 08:06:50;;;;;;;21.85;14.00;;;;;;;;;;6026629;29;20068;-84
2022/10/16 08:09:52;;;;;;;17.48;13.20;;;;;;;;;;6048663;29;20096;-83
2022/10/16 08:12:54;;;;;;;7.93;6.97;;;;;;;;;;6056903;29;20131;-84
2022/10/16 08:15:56;;;;;;;3.10;2.40;;;;;;;;;;6030602;29;20060;-83
2022/10/16 08:18:59;;;;;;;3.83;2.63;;;;;;;;;;6053964;29;20071;-83
2022/10/16 08:22:01;;;;;;;1.60;1.30;;;;;;;;;;6059682;29;20093;-84
2022/10/16 08:25:05;;;;;;;1.63;1.10;;;;;;;;;;6055815;29;20668;-84
2022/10/16 08:28:09;;;;;;;3.75;1.10;;;;;;;;;;6043740;29;20144;-83
2022/10/16 08:31:13;;;;;;;1.45;1.00;;;;;;;;;;6028409;29;20044;-83
2022/10/16 08:34:15;;;;;;;3.10;1.73;;;;;;;;;;6042772;29;20532;-83
2022/10/16 08:37:16;;;;;;;0.98;0.90;;;;;;;;;;6043704;29;20136;-84
2022/10/16 08:40:32;;;;;;;0.90;0.90;;;;;;;;;;6050455;29;20049;-81
2022/10/16 08:44:07;;;;;;;1.55;1.10;;;;;;;;;;6068652;29;20259;-82
2022/10/16 08:47:21;;;;;;;0.90;0.90;;;;;;;;;;6054184;29;20072;-82
2022/10/16 08:50:27;;;;;;;3.58;1.10;;;;;;;;;;6064757;29;20048;-83
2022/10/16 08:53:57;;;;;;;3.17;0.80;;;;;;;;;;6062458;29;20072;-83
2022/10/16 08:57:11;;;;;;;4.80;1.08;;;;;;;;;;6059055;29;20412;-85
2022/10/16 09:00:14;;;;;;;1.63;0.70;;;;;;;;;;6048757;29;20049;-88
2022/10/16 09:03:28;;;;;;;1.50;1.33;;;;;;;;;;6060326;29;20113;-88
2022/10/16 09:06:42;;;;;;;2.72;0.70;;;;;;;;;;6045423;29;20052;-87
2022/10/16 09:09:53;;;;;;;2.55;1.40;;;;;;;;;;6048850;29;20068;-87
2022/10/16 09:13:17;;;;;;;4.53;1.20;;;;;;;;;;6055639;29;20041;-87
2022/10/16 09:16:38;;;;;;;;;;;;;;;;;;6050544;29;20059;-85
2022/10/16 09:19:48;;;;;;;0.65;0.65;;;;;;;;;;6046072;29;19931;-86
2022/10/16 09:23:00;;;;;;;2.17;0.70;;;;;;;;;;6061536;29;20052;-88
2022/10/16 09:26:03;;;;;;;1.30;0.80;;;;;;;;;;6059941;29;20512;-89
2022/10/16 09:29:05;;;;;;;0.52;0.50;;;;;;;;;;6039248;29;20049;-90
2022/10/16 09:32:15;;;;;;;1.67;0.80;;;;;;;;;;6043665;29;20134;-88
2022/10/16 09:35:22;;;;;;;1.70;0.57;;;;;;;;;;6043035;29;20048;-87
2022/10/16 09:38:30;;;;;;;0.70;0.70;;;;;;;;;;6048610;29;20096;-88
2022/10/16 09:41:37;;;;;;;2.15;0.70;;;;;;;;;;6027733;29;20831;-86
2022/10/16 09:44:40;;;;;;;1.00;0.60;;;;;;;;;;6029185;29;20060;-85
2022/10/16 09:47:43;;;;;;;2.40;0.80;;;;;;;;;;6028127;29;20195;-89
2022/10/16 09:50:59;;;;;;;1.80;1.00;;;;;;;;;;6063417;29;20044;-87
2022/10/16 09:54:14;;;;;;;1.05;0.75;;;;;;;;;;6046835;29;20075;-88
2022/10/16 09:57:16;;;;;;;1.20;0.90;;;;;;;;;;6026335;29;20056;-87
2022/10/16 10:00:18;;;;;;;1.00;0.90;;;;;;;;;;6010331;29;20084;-89
2022/10/16 10:03:35;;;;;;;3.08;1.30;;;;;;;;;;6052203;29;20075;-87
2022/10/16 10:06:43;;;;;;;2.33;1.40;;;;;;;;;;6044892;29;20052;-88
2022/10/16 10:09:45;;;;;;;1.33;0.70;;;;;;;;;;6021069;29;20278;-86
2022/10/16 10:12:47;;;;;;;1.80;1.00;;;;;;;;;;6058805;29;20036;-86
2022/10/16 10:15:52;;;;;;;3.25;0.93;;;;;;;;;;6058385;29;20045;-86
2022/10/16 10:19:00;;;;;;;1.10;0.80;;;;;;;;;;6046970;29;20063;-85
2022/10/16 10:22:18;;;;;;;1.67;0.77;;;;;;;;;;6036430;29;20041;-86
2022/10/16 10:25:23;;;;;;;0.60;0.60;;;;;;;;;;6031033;29;20048;-85
2022/10/16 10:28:39;;;;;;;1.95;0.63;;;;;;;;;;6043943;29;20104;-86
2022/10/16 10:32:09;;;;;;;0.77;0.60;;;;;;;;;;6033491;29;20056;-85
2022/10/16 10:35:30;;;;;;;0.70;0.68;;;;;;;;;;6043214;29;20769;-85
2022/10/16 10:38:53;;;;;;;5.47;0.60;;;;;;;;;;6043550;29;20048;-87
2022/10/16 10:42:16;;;;;;;1.02;0.70;;;;;;;;;;6040180;29;20577;-87
2022/10/16 10:45:31;;;;;;;1.55;1.20;;;;;;;;;;6044036;29;20135;-85
2022/10/16 10:49:01;;;;;;;1.17;0.85;;;;;;;;;;6028050;29;20045;-86
2022/10/16 10:52:28;;;;;;;1.67;0.75;;;;;;;;;;6054849;29;20559;-87
2022/10/16 10:56:04;;;;;;;3.13;1.63;;;;;;;;;;6055968;29;20071;-87
2022/10/16 10:59:37;;;;;;;0.80;0.70;;;;;;;;;;6035720;29;20060;-86
2022/10/16 11:02:44;;;;;;;1.08;0.50;;;;;;;;;;6012928;29;20053;-87
2022/10/16 11:05:56;;;;;;;2.05;0.70;;;;;;;;;;6046014;29;20439;-87
2022/10/16 11:09:09;;;;;;;1.73;0.60;;;;;;;;;;6035607;29;20131;-87
2022/10/16 11:12:31;;;;;;;1.45;0.60;;;;;;;;;;6055898;29;20096;-86
2022/10/16 11:15:40;;;;;;;2.25;0.40;;;;;;;;;;6045013;29;21385;-87
2022/10/16 11:18:54;;;;;;;2.83;0.52;;;;;;;;;;6030522;29;20173;-87
2022/10/16 11:22:04;;;;;;;0.93;0.40;;;;;;;;;;6074657;29;20104;-87
2022/10/16 11:25:15;;;;;;;0.60;0.50;;;;;;;;;;6054876;29;20325;-87
2022/10/16 11:28:21;;;;;;;0.45;0.43;;;;;;;;;;6049981;29;20059;-87
2022/10/16 11:31:50;;;;;;;0.50;0.50;;;;;;;;;;6038171;29;20139;-88
2022/10/16 11:35:04;;;;;;;0.65;0.30;;;;;;;;;;6045998;29;20186;-87
2022/10/16 11:38:38;;;;;;;1.15;0.50;;;;;;;;;;6045006;29;20100;-87
2022/10/16 11:41:51;;;;;;;4.60;0.60;;;;;;;;;;6053627;29;20040;-87
2022/10/16 11:45:26;;;;;;;2.85;0.60;;;;;;;;;;6044009;29;20041;-87
2022/10/16 11:48:36;;;;;;;1.88;0.43;;;;;;;;;;6045887;29;20055;-87
2022/10/16 11:52:13;;;;;;;3.10;0.52;;;;;;;;;;6044776;29;20523;-87
2022/10/16 11:55:22;;;;;;;0.63;0.40;;;;;;;;;;6028366;29;20085;-86
2022/10/16 11:58:34;;;;;;;1.45;0.30;;;;;;;;;;6027295;29;20052;-87
2022/10/16 12:01:48;;;;;;;2.33;0.50;;;;;;;;;;6040771;29;20038;-87
2022/10/16 12:04:59;;;;;;;0.43;0.25;;;;;;;;;;6034822;29;20060;-88
2022/10/16 12:08:15;;;;;;;1.02;0.40;;;;;;;;;;6036235;29;20053;-86
2022/10/16 12:11:27;;;;;;;0.77;0.40;;;;;;;;;;6064283;29;20098;-87
2022/10/16 12:14:32;;;;;;;2.40;0.57;;;;;;;;;;6047497;29;20184;-87
2022/10/16 12:17:38;;;;;;;0.63;0.50;;;;;;;;;;6049290;29;20052;-87
2022/10/16 12:20:45;;;;;;;1.02;0.30;;;;;;;;;;6046350;29;20052;-86
2022/10/16 12:23:54;;;;;;;2.33;0.40;;;;;;;;;;6048228;29;20045;-87
2022/10/16 12:26:56;;;;;;;0.40;0.40;;;;;;;;;;6028380;29;20099;-87
2022/10/16 12:30:01;;;;;;;1.23;0.45;;;;;;;;;;6045889;29;20548;-86
2022/10/16 12:33:20;;;;;;;0.55;0.40;;;;;;;;;;6045532;29;20142;-87
2022/10/16 12:36:36;;;;;;;3.50;0.80;;;;;;;;;;6046773;29;20139;-86
2022/10/16 12:39:38;;;;;;;3.00;1.05;;;;;;;;;;6045028;29;20052;-86
2022/10/16 12:42:40;;;;;;;0.85;0.70;;;;;;;;;;6044456;29;21966;-86
2022/10/16 12:45:43;;;;;;;0.57;0.47;;;;;;;;;;6045367;29;20052;-86
2022/10/16 12:48:46;;;;;;;1.75;0.80;;;;;;;;;;6014499;29;21395;-86
2022/10/16 12:52:28;;;;;;;1.60;0.80;;;;;;;;;;6046900;29;20048;-86
2022/10/16 12:55:41;;;;;;;0.43;0.40;;;;;;;;;;6042208;29;20052;-87
2022/10/16 12:59:07;;;;;;;1.50;0.55;;;;;;;;;;6028210;29;20526;-87
2022/10/16 13:02:31;;;;;;;0.93;0.40;;;;;;;;;;6061399;29;20527;-87
2022/10/16 13:06:03;;;;;;;2.92;0.50;;;;;;;;;;6047118;29;20063;-87
2022/10/16 13:09:05;;;;;;;1.20;0.65;;;;;;;;;;6049530;29;20056;-87
2022/10/16 13:12:36;;;;;;;0.70;0.50;;;;;;;;;;6062205;29;20060;-87
2022/10/16 13:15:52;;;;;;;3.67;0.50;;;;;;;;;;6045670;29;20489;-87
2022/10/16 13:19:01;;;;;;;0.30;0.28;;;;;;;;;;6041771;29;20520;-87
2022/10/16 13:22:15;;;;;;;1.83;0.57;;;;;;;;;;6044881;29;20056;-86
2022/10/16 13:25:34;;;;;;;1.08;0.50;;;;;;;;;;6056423;29;20049;-88
2022/10/16 13:28:39;;;;;;;1.40;0.60;;;;;;;;;;6030949;29;20122;-87
2022/10/16 13:31:43;;;;;;;0.57;0.40;;;;;;;;;;6045133;29;20151;-86
2022/10/16 13:34:48;;;;;;;0.20;0.20;;;;;;;;;;6042399;29;20049;-87
2022/10/16 13:37:50;;;;;;;1.27;0.60;;;;;;;;;;6042524;29;20053;-87
2022/10/16 13:41:03;;;;;;;1.40;0.50;;;;;;;;;;6038274;29;20059;-86
2022/10/16 13:44:17;;;;;;;0.98;0.60;;;;;;;;;;6026870;29;20042;-86
2022/10/16 13:47:25;;;;;;;1.75;0.70;;;;;;;;;;6025060;29;20037;-87
2022/10/16 13:50:27;;;;;;;0.70;0.50;;;;;;;;;;6045448;29;20052;-86
2022/10/16 13:53:36;;;;;;;1.45;0.40;;;;;;;;;;6031593;29;20537;-86
2022/10/16 13:56:40;;;;;;;2.70;0.70;;;;;;;;;;6028545;29;20136;-84
2022/10/16 13:59:42;;;;;;;1.55;0.73;;;;;;;;;;6006597;29;20048;-85
2022/10/16 14:02:44;;;;;;;1.40;0.70;;;;;;;;;;6036406;29;20048;-85
2022/10/16 14:05:51;;;;;;;1.57;0.73;;;;;;;;;;6042764;29;20052;-85
2022/10/16 14:09:04;;;;;;;0.70;0.47;;;;;;;;;;6047118;29;20056;-85
2022/10/16 14:12:12;;;;;;;1.08;0.40;;;;;;;;;;6043420;29;20413;-85
2022/10/16 14:15:18;;;;;;;1.10;0.60;;;;;;;;;;6045014;29;20044;-84
2022/10/16 14:18:23;;;;;;;2.17;0.43;;;;;;;;;;6028450;29;20053;-85
2022/10/16 14:21:26;;;;;;;2.42;0.68;;;;;;;;;;6059733;29;20178;-85
2022/10/16 14:24:33;;;;;;;2.05;0.70;;;;;;;;;;6043654;29;20048;-85
2022/10/16 14:27:36;;;;;;;0.68;0.43;;;;;;;;;;6058672;29;20762;-85
2022/10/16 14:30:49;;;;;;;0.88;0.60;;;;;;;;;;6030781;29;20048;-85
2022/10/16 14:33:50;;;;;;;2.70;0.70;;;;;;;;;;6044993;29;20049;-85
2022/10/16 14:36:55;;;;;;;1.55;0.40;;;;;;;;;;6060872;29;20188;-85
2022/10/16 14:39:57;;;;;;;0.88;0.38;;;;;;;;;;6038763;29;20184;-85
2022/10/16 14:43:01;;;;;;;1.27;0.32;;;;;;;;;;6044886;29;20050;-85
2022/10/16 14:46:09;;;;;;;0.88;0.20;;;;;;;;;;6037705;29;20053;-86
2022/10/16 14:49:11;;;;;;;0.90;0.40;;;;;;;;;;6025726;29;20778;-85
2022/10/16 14:52:12;;;;;;;0.93;0.30;;;;;;;;;;6062137;29;20040;-85
2022/10/16 14:55:15;;;;;;;0.70;0.30;;;;;;;;;;6028430;29;20059;-85
2022/10/16 14:58:22;;;;;;;0.30;0.28;;;;;;;;;;6061632;29;20663;-85
2022/10/16 15:01:24;;;;;;;0.20;0.20;;;;;;;;;;6026007;29;20135;-85
2022/10/16 15:04:26;;;;;;;1.63;0.70;;;;;;;;;;6026399;29;22573;-85
2022/10/16 15:07:28;;;;;;;;;;;;;;;;;;6042401;29;20412;-85
2022/10/16 15:10:33;;;;;;;4.03;2.00;;;;;;;;;;6044103;29;19951;-86
2022/10/16 15:13:34;;;;;;;1.90;0.60;;;;;;;;;;6034921;29;20147;-85
2022/10/16 15:16:36;;;;;;;3.95;1.00;;;;;;;;;;6024176;29;20066;-86
2022/10/16 15:19:38;;;;;;;0.98;0.70;;;;;;;;;;6042604;29;20055;-85
2022/10/16 15:22:40;;;;;;;1.40;0.70;;;;;;;;;;6030169;29;20056;-85
2022/10/16 15:25:47;;;;;;;1.92;0.90;;;;;;;;;;6044398;29;20056;-85
2022/10/16 15:28:49;;;;;;;3.33;1.25;;;;;;;;;;6047827;29;20508;-85
2022/10/16 15:31:51;;;;;;;5.10;1.60;;;;;;;;;;6058816;29;20432;-85
2022/10/16 15:34:52;;;;;;;7.30;2.78;;;;;;;;;;6057472;29;20056;-85
2022/10/16 15:37:54;;;;;;;14.25;5.28;;;;;;;;;;6040402;29;20053;-85
2022/10/16 15:40:56;;;;;;;6.53;2.10;;;;;;;;;;6042492;29;20041;-85
2022/10/16 15:43:58;;;;;;;3.20;0.90;;;;;;;;;;6055130;29;20044;-85
2022/10/16 15:47:01;;;;;;;2.83;1.45;;;;;;;;;;6042190;29;20511;-85
2022/10/16 15:50:04;;;;;;;3.08;0.90;;;;;;;;;;6044250;29;20511;-85
2022/10/16 15:53:05;;;;;;;;;;;;;;;;;;6044258;29;20096;-87
2022/10/16 15:56:09;;;;;;;2.30;0.70;;;;;;;;;;6049526;29;20282;-85
2022/10/16 15:59:11;;;;;;;3.90;0.98;;;;;;;;;;6049449;29;20049;-85
2022/10/16 16:02:13;;;;;;;6.85;2.58;;;;;;;;;;6054607;29;20101;-85
2022/10/16 16:05:15;;;;;;;7.93;2.05;;;;;;;;;;6057663;29;20063;-85
2022/10/16 16:08:16;;;;;;;7.70;2.95;;;;;;;;;;6058451;29;20083;-85
2022/10/16 16:11:19;;;;;;;21.20;9.10;;;;;;;;;;6057344;29;20053;-84
2022/10/16 16:14:21;;;;;;;16.45;7.18;;;;;;;;;;6042016;29;20056;-85
2022/10/16 16:17:24;;;;;;;5.22;2.35;;;;;;;;;;6059582;29;20420;-85
2022/10/16 16:20:25;;;;;;;;;;;;;;;;;;6022413;29;20071;-85
2022/10/16 16:23:27;;;;;;;39.40;12.23;;;;;;;;;;6033719;29;19927;-85
2022/10/16 16:26:34;;;;;;;40.17;12.82;;;;;;;;;;6059663;29;20048;-85
2022/10/16 16:29:36;;;;;;;23.40;8.93;;;;;;;;;;6048653;29;20495;-85
2022/10/16 16:32:38;;;;;;;12.48;3.30;;;;;;;;;;6065468;29;20052;-84
2022/10/16 16:35:39;;;;;;;6.57;2.50;;;;;;;;;;6060352;29;20048;-85
2022/10/16 16:38:41;;;;;;;17.45;7.20;;;;;;;;;;6024490;29;20048;-87
2022/10/16 16:41:45;;;;;;;;;;;;;;;;;;6041846;29;20053;-85
2022/10/16 16:44:48;;;;;;;6.90;3.10;;;;;;;;;;6041152;29;19927;-86
2022/10/16 16:47:50;;;;;;;5.03;3.10;;;;;;;;;;6054125;29;20075;-86
2022/10/16 16:50:53;;;;;;;7.75;3.90;;;;;;;;;;6030226;29;20068;-85
2022/10/16 16:53:55;;;;;;;4.15;2.03;;;;;;;;;;6035218;29;20587;-86
2022/10/16 16:56:57;;;;;;;4.03;1.63;;;;;;;;;;6046929;29;20143;-86
2022/10/16 16:59:58;;;;;;;2.35;1.55;;;;;;;;;;6045839;29;20047;-86
2022/10/16 17:03:00;;;;;;;4.53;2.10;;;;;;;;;;6052894;29;20048;-88
2022/10/16 17:06:06;;;;;;;2.70;1.83;;;;;;;;;;6027019;29;20137;-89
2022/10/16 17:09:09;;;;;;;316.13;126.68;;;;;;;;;;6027834;29;20124;-87
2022/10/16 17:12:11;;;;;;;9.50;5.70;;;;;;;;;;6043010;29;20047;-86
2022/10/16 17:15:13;;;;;;;8.95;6.28;;;;;;;;;;6058410;29;20049;-87
2022/10/16 17:18:14;;;;;;;5.00;2.45;;;;;;;;;;6012727;29;20188;-86
2022/10/16 17:21:16;;;;;;;5.78;3.20;;;;;;;;;;6030538;29;20056;-87
2022/10/16 17:24:19;;;;;;;5.10;2.95;;;;;;;;;;6043111;29;20551;-87
2022/10/16 17:27:22;;;;;;;8.93;6.25;;;;;;;;;;6042281;29;20420;-86
2022/10/16 17:30:24;;;;;;;7.90;5.67;;;;;;;;;;6036006;29;20045;-86
2022/10/16 17:33:26;;;;;;;4.97;3.05;;;;;;;;;;6021350;29;20492;-87
2022/10/16 17:36:31;;;;;;;7.15;3.92;;;;;;;;;;6051817;29;20047;-86
2022/10/16 17:39:33;;;;;;;6.03;2.33;;;;;;;;;;6046359;29;20056;-86
2022/10/16 17:42:35;;;;;;;7.03;2.78;;;;;;;;;;6057202;29;20044;-86
2022/10/16 17:45:38;;;;;;;5.55;2.10;;;;;;;;;;6031893;29;20521;-86
2022/10/16 17:48:42;;;;;;;34.00;22.77;;;;;;;;;;6037290;29;20052;-86
2022/10/16 17:51:44;;;;;;;9.52;3.28;;;;;;;;;;6057709;29;20053;-87
2022/10/16 17:54:49;;;;;;;39.67;26.70;;;;;;;;;;6063477;29;20073;-87
2022/10/16 17:57:52;;;;;;;9.40;6.53;;;;;;;;;;6027730;29;20056;-87
2022/10/16 18:00:54;;;;;;;7.93;2.90;;;;;;;;;;6043581;29;20057;-87
2022/10/16 18:04:06;;;;;;;9.65;5.20;;;;;;;;;;6055100;29;20040;-86
2022/10/16 18:07:07;;;;;;;5.45;4.03;;;;;;;;;;6027864;29;20224;-87
2022/10/16 18:10:10;;;;;;;9.68;5.20;;;;;;;;;;6054925;29;20059;-86
2022/10/16 18:13:14;;;;;;;11.50;4.75;;;;;;;;;;6030576;29;20175;-86
2022/10/16 18:16:15;;;;;;;8.93;4.82;;;;;;;;;;6049211;29;20052;-86
2022/10/16 18:19:18;;;;;;;11.73;5.22;;;;;;;;;;6021324;29;20049;-86
2022/10/16 18:22:22;;;;;;;7.65;4.88;;;;;;;;;;6045166;29;20049;-85
2022/10/16 18:25:24;;;;;;;11.68;5.18;;;;;;;;;;6041518;29;20131;-86
2022/10/16 18:28:26;;;;;;;11.23;5.95;;;;;;;;;;6044325;29;20529;-86
2022/10/16 18:31:28;;;;;;;11.25;5.60;;;;;;;;;;6043910;29;20060;-86
2022/10/16 18:34:34;;;;;;;15.15;5.45;;;;;;;;;;6025741;29;20049;-86
2022/10/16 18:37:36;;;;;;;12.38;7.10;;;;;;;;;;6028562;29;20056;-86